Timeline UpdatesTrip UpdatesNews PostsPvt Posts♥♥Travel TipsAdmin PostsConv PostsFollowed PostsChat RequestsBlog PostsPNR Posts

Disclaimer
Search
 
 
Sat Nov 1, 2014 19:35:32 ISTHomeTrainsΣChainsAtlasPNRForumGalleryNewsFAQTripsMembersLoginFeedback
No Recent News for this Train
Other Trains in the News **new
Latest...
.
Tue Nov 19, 2013 (11:57PM)
⇐ Return Journey: Train# 56323

56324/Mangalore - Coimbatore Fast Passenger (UnReserved)

Time-Table HAS CHANGED.
Sep 03 2014 (10:03AM)
Change Departure Station:
Change Arrival Station:
Post a Train Travel TipPost a Train Travel Tip **new
Post a Comment/Question/Picture/VideoPost a Comment/Question/Picture/Video
Pantry/Catering
???
RSA - Rake Sharing
RSA; with 56319/56320 Nagercoil Coimbatore Fast Passenger; Srivatsa Udupa
Rake/Coach Composition
LOCO=SLR=UR=UR=UR=UR=UR=UR=UR=UR=UR=UR=UR=UR=UR=UR=SLR
Loco
ED WDM 3D/3A or TNP/GOC WDM2
News    PNR    Forum    Time-Table    Availability    Fare Chart    Map    Arr/Dep History    Trips    Gallery    ΣChains    X/O    Timeline    
Travel Time: 1h 21m    8 halts    Distance: 67 km    Avg Speed: 49 km/hr
Type: Passenger
Zone: SR/Southern
Departs @ 08:07 (Avg 9m late)
Platform# ???
SMTWTFS
Manjeshwar/MJS 
Arrives @ 09:28 (Avg 18m late)
Platform# ???
SMTWTFS
Charvattur/CHV 

8 halts. 8 intermediate Stations between Manjeshwar and Charvattur

Show ALL intermediate Stations  Show Old Time-Table

#TrkCodeStation NameX/OArrivesAvgDepartsAvgHaltPFDay#KmSpeedElevZoneAddress
1%==%MAQMangalore Central (4)  -08:00 07:40+231-16.82314mSRMangalore 575001, Karnataka
2%==%ULLUllal (2)  08:19 07:57+708:20 07:58+71m--1-10.37726mSRSomeshwar, Karnataka
3%==%MJSManjeshwar (3)»  08:28 08:06+908:29 08:07+91m--10.05912mSRManjeshwar, Kerala
4%==%UAAUppala (2)X  08:36 08:14+1008:37 08:15+111m--16.95916mSRKasaragod District, Kerala
5%==%KMQKumbala (2)X  08:47 08:25+1208:48 08:26+121m--116.77323mSRKumbla, Kerala
6%==%KGQKasaragod (3)X  08:58 08:36+1009:00 08:38+112m--128.92518mSRTel: 04994 220800, Kerala
7%==%KLADKalanad Halt  09:06 08:45-09:07 08:46-1m--131.8663mSRKasaragod, Kerala
8%==%KQKKottikkulam (2)X  09:13 08:52+1209:14 08:53+131m--138.44225mSRBekal, Kerala
9%==%BFRBekal Fort (2)  09:21 09:00-09:22 09:01-1m--143.210511mSRPallikere, Kerala
10%==%KZEKanhangad (3)X  09:29 09:06+1209:31 09:08+122m--152.05115mSRKanhangad, Kerala
11%==%NLENileshwar (2)  09:42 09:19+1709:43 09:20+171m--161.34012mSRNileswaram, Kerala
12%==%CHVCharvattur (3)•  09:51 09:28+1809:52 09:29+181m--166.56414mSRKasaragod district, Kerala
13%==%TKQTrikkarippur  10:00 09:37-10:01 09:38-1m--175.15313mSRKasargod district, Kerala
14%==%PAYPayyanur (3)  10:08 09:45+1310:09 09:47+131 2m--181.3210mSRKannur District, Kerala
15%==%ELMEzhimala  10:17 09:55-10:18 09:56-1m--184.17615mSRKannur District, Kerala
16%==%PAZPayangadi (2)X  10:25 10:03+1510:26 10:04+151m2192.95012mSRKannur District, Kerala
17%==%KPQKannapuram (2)  10:35 10:13+1610:36 10:14+161m21100.51209mSRKannur District, Kerala
18%==%PPNSPappinisseri (2)  10:39 10:17+910:40 10:18+91m--1106.5198mSRKannur District, Kerala
19%==%VAPMValapattanam (2)  10:45 10:23+1610:46 10:24+161m--1108.0258mSRKannur District, Kerala
20%==%CQLChirakkal (2)X  10:51 10:29-10:52 10:30-1m--1110.1827mSRKannur district, Kerala
21%==%CANKannur Main (4)  11:20 11:05+011:25 11:10+25m31114.97314mSRKannur Tel: 0497 2705555, Kerala
22%==%TLYThalassery (2)  11:45 11:27+211:46 11:29+21 2m--1135.6699mSRKannur, Kerala
23%==%MAHEMahe (2)X  11:57 11:37+611:58 11:39+71 2m--1144.92816mSRMahe, Puducherry
24%==%MUKEMukkali  12:03 11:47-12:04 11:48-1m--1148.64418mSRChombala, Kerala
25%==%NAUNadapuram Road  12:09 11:53-12:10 11:54-1m--1152.310918mSRMadappallly, Kerala
26%==%BDJVadakara (2)  12:15 11:57+412:16 11:59+51 2m11157.78311mSRCalicut / Station Ph No : 0496-2524254, Kerala
27%==%PYOLPayyoli (2)  12:22 12:06-12:23 12:07-1m--1167.45212mSRPayyoli, Kerala
28%==%QLDKoyilandy (3)  12:38 12:21+812:39 12:22+101m--1179.73811mSRQuilandi, Kerala
29%==%CLTKozhikode Main (4)X  13:15 13:00+013:20 13:05+35m31204.02211mSRCalicut Tel: 0495 2701234, Kerala
30%==%KULKallayi Kozhikode South (2)X  13:25 13:10+913:26 13:11+111m--1205.8490mSRCalicut, Kerala
31%==%FKFerok (2)  13:34 13:21+713:35 13:22+81m--1213.94019mSRFeroke, Kerala
32%==%KNKadalundi (2)  13:40 13:29+1413:41 13:30+141m--1218.7668mSRKozhikode district, Kerala
33%==%VLIVallikunnu (2)  13:45 13:35+413:46 13:36+41m--1224.23713mSRVallikkunnu, Kerala
34%==%PGIParappangadi (2)  13:54 13:44+1113:55 13:45+181m--1229.15419mSRParappanangadi, Kerala
35%==%TATanur (3)XO  14:04 13:54+2314:05 13:55+271m--1237.21511mSRMalappuram, Kerala
36%==%TIRTirur (3)X  14:18 14:28+614:20 14:30+72m31245.2579mSRTel: 0494 2422240, Kerala
37%==%TUATirunnavaya (2)X  14:29 14:39+1114:30 14:40+111m--1253.84810mSRThirunavaya, Kerala
38%==%KTUKuttippuram (2)  14:39 14:48+814:40 14:50+121 2m--1260.36217mSRKuttippuram, Kerala
39%==%PUMPallippuram  14:49 14:59+2214:50 15:00+251m--1269.6615mSRPalakkad, Kerala
40%==%PTBPattambi (2)XO  14:59 15:09+2115:00 15:10+231m--1278.81321mSRPattambi, Kerala
41%==%SRRShoranur Junction (7)X  16:00 16:05+216:15+615 10m51290.32926mSRShoranur ph.no 0466-2222913, Kerala
42/==/MNURMannanur (2)  16:27+916:28+111m--1296.15333mSRVaniamkulam Mannanur Rd, Kerala
43/==/OTPOttappalam (2)  16:37 16:36+716:38+71 2m--1303.13530mSROttapalam, Kerala
44/==/PLPMPalappuram  16:44-16:45-1m--1306.74042mSRKayarampara-Meetna Rd, Kerala
45/==/LDYLakkidi (2)X  16:51+1016:52+131m--1310.75835mSRPalakkad, Kerala
46/==/MNYMankara (2)  17:00+1317:01+131m--1318.55665mSRPalakkad, Kerala
47/==/PLLParli (2)  17:09+1217:10+131m--1325.92263mSRPalakkad, Kerala
48/==/PGTPalakkad Junction (4)XO  17:35+318:00+425m31334.94784mSRPalghat Tel: 0491 2555231, Kerala
49/==/KJKDKanjikode (2)X  18:17+618:18+61m--1348.1460mSRPalakkad, Kerala
50/==/WRAWalayarX  18:34+718:35+81m--1360.533213mSRPalakkad, Kerala
51/==/ETMDEttimadai (2)  18:51+418:52+41m--1369.245313mSREttimadai, Tamil Nadu
52/==/MDKIMadukaraiX  18:59+619:00+61m--1374.533344mSRCoimbatore, Tamil Nadu
53/==/PTJPodanur Junction (4)  19:18+319:20+32m11384.323400mSRPodanur jtn ph.no. 0422-2410784, Tamil Nadu
54/==/CBECoimbatore Main Junction (6)  19:35+2---1390.2-416mSRCoimbatore 641001, Tamil Nadu
Scroll to Top
Scroll to Bottom